Time;durP1;ratioP1;P1;durP2;ratioP2;P2;SDS_P1;SDS_P2;PMS_P1;PMS_P2;Temp;Humidity;BMP_temperature;BMP_pressure;BME280_temperature;BME280_humidity;BME280_pressure;Samples;Min_cycle;Max_cycle;Signal;HPM_P1;HPM_P2
2021/03/13 00:01:13;;;;;;;13.80;3.45;;;21.90;37.10;;;;;;5094389;28;20043;-73
2021/03/13 00:03:40;;;;;;;14.20;3.88;;;21.90;37.30;;;;;;5099627;28;20028;-73
2021/03/13 00:06:07;;;;;;;18.65;5.25;;;21.90;36.80;;;;;;5098187;28;20024;-73
2021/03/13 00:08:36;;;;;;;16.08;4.10;;;21.80;37.10;;;;;;5095649;28;20342;-73
2021/03/13 00:11:07;;;;;;;14.02;3.40;;;21.90;37.40;;;;;;5096648;28;20369;-73
2021/03/13 00:13:35;;;;;;;13.88;3.70;;;21.90;36.90;;;;;;5096651;28;20161;-73
2021/03/13 00:16:03;;;;;;;15.65;4.28;;;21.80;37.70;;;;;;5104271;28;20035;-73
2021/03/13 00:18:30;;;;;;;15.48;4.50;;;21.80;37.90;;;;;;5103217;28;20028;-74
2021/03/13 00:20:56;;;;;;;14.30;3.42;;;21.60;38.10;;;;;;5101591;28;20457;-74
2021/03/13 00:23:25;;;;;;;15.02;4.40;;;21.50;38.70;;;;;;5099943;28;20126;-73
2021/03/13 00:25:51;;;;;;;24.02;5.47;;;21.70;39.10;;;;;;5103806;28;20041;-75
2021/03/13 00:28:18;;;;;;;17.55;4.88;;;21.90;38.10;;;;;;5101205;28;20527;-73
2021/03/13 00:30:46;;;;;;;14.60;3.63;;;21.70;38.60;;;;;;5102001;28;20036;-72
2021/03/13 00:33:18;;;;;;;25.55;4.47;;;21.60;37.80;;;;;;5099988;28;20457;-73
2021/03/13 00:35:47;;;;;;;23.15;5.53;;;21.20;38.80;;;;;;5098539;28;20026;-73
2021/03/13 00:38:14;;;;;;;19.90;5.53;;;21.40;39.40;;;;;;5097553;28;20043;-73
2021/03/13 00:40:43;;;;;;;19.90;5.43;;;21.30;40.00;;;;;;5103969;28;20050;-73
2021/03/13 00:43:11;;;;;;;26.27;6.53;;;21.20;40.90;;;;;;5103241;28;20051;-73
2021/03/13 00:45:39;;;;;;;31.13;6.95;;;21.10;39.80;;;;;;5101823;28;20032;-72
2021/03/13 00:48:06;;;;;;;26.17;5.95;;;21.00;41.60;;;;;;5102033;28;20030;-72
2021/03/13 00:50:36;;;;;;;24.38;6.18;;;20.80;42.20;;;;;;5105251;28;20396;-73
2021/03/13 00:53:03;;;;;;;25.65;7.15;;;20.70;43.50;;;;;;5105004;28;20408;-73
2021/03/13 00:55:32;;;;;;;24.65;6.10;;;20.60;43.70;;;;;;5100374;28;20059;-74
2021/03/13 00:57:58;;;;;;;29.75;8.73;;;20.40;43.80;;;;;;5101143;28;20103;-73
2021/03/13 01:00:26;;;;;;;31.98;7.10;;;20.40;44.50;;;;;;5101578;28;20458;-73
2021/03/13 01:02:53;;;;;;;30.30;7.43;;;20.00;44.60;;;;;;5098763;28;20019;-73
2021/03/13 01:05:20;;;;;;;32.10;7.65;;;20.10;45.10;;;;;;5099177;28;20096;-74
2021/03/13 01:07:47;;;;;;;30.77;6.43;;;20.00;44.90;;;;;;5102717;28;20085;-72
2021/03/13 01:10:24;;;;;;;32.13;6.40;;;19.90;45.00;;;;;;5100352;28;20022;-73
2021/03/13 01:12:50;;;;;;;26.30;5.47;;;19.80;45.20;;;;;;5103536;28;20036;-73
2021/03/13 01:15:19;;;;;;;34.97;8.38;;;19.70;45.50;;;;;;5102492;28;20015;-74
2021/03/13 01:17:46;;;;;;;30.20;5.82;;;19.70;45.20;;;;;;5104147;28;20027;-73
2021/03/13 01:20:14;;;;;;;23.77;5.25;;;19.60;44.60;;;;;;5104003;28;20016;-74
2021/03/13 01:22:42;;;;;;;22.73;5.18;;;19.40;44.50;;;;;;5103023;28;20416;-72
2021/03/13 01:25:10;;;;;;;20.33;7.63;;;19.00;45.30;;;;;;5098474;28;20020;-73
2021/03/13 01:27:37;;;;;;;25.20;5.93;;;19.10;45.10;;;;;;5096468;28;20098;-72
2021/03/13 01:30:06;;;;;;;19.88;5.78;;;19.10;45.30;;;;;;5104251;28;20015;-72
2021/03/13 01:32:33;;;;;;;22.50;5.68;;;18.70;45.70;;;;;;5101029;28;20023;-72
2021/03/13 01:34:59;;;;;;;19.83;5.07;;;18.50;45.40;;;;;;5099575;28;20030;-74
2021/03/13 01:37:25;;;;;;;30.20;6.47;;;18.40;45.90;;;;;;5100857;28;20067;-74
2021/03/13 01:39:52;;;;;;;22.25;5.47;;;18.20;46.10;;;;;;5099053;28;20035;-74
2021/03/13 01:42:18;;;;;;;23.63;6.15;;;18.10;46.20;;;;;;5103595;28;20447;-73
2021/03/13 01:44:45;;;;;;;27.00;5.85;;;18.10;46.40;;;;;;5103620;28;20483;-73
2021/03/13 01:47:30;;;;;;;18.42;4.53;;;18.00;45.50;;;;;;5101670;28;20564;-73
2021/03/13 01:49:57;;;;;;;18.67;5.55;;;17.70;45.60;;;;;;5103878;28;20024;-73
2021/03/13 01:52:23;;;;;;;19.70;5.25;;;17.60;45.50;;;;;;5100947;28;20039;-73
2021/03/13 01:54:50;;;;;;;15.98;5.47;;;17.80;45.00;;;;;;5102110;28;20032;-73
2021/03/13 01:57:17;;;;;;;20.05;5.97;;;17.80;45.00;;;;;;5097736;28;20135;-74
2021/03/13 01:59:44;;;;;;;16.90;3.80;;;17.70;44.80;;;;;;5093759;28;20213;-73
2021/03/13 02:02:14;;;;;;;21.38;5.72;;;17.40;45.30;;;;;;5100924;28;20105;-73
2021/03/13 02:04:41;;;;;;;18.92;5.20;;;17.20;45.40;;;;;;5103243;28;20020;-72
2021/03/13 02:07:26;;;;;;;9.55;3.05;;;17.20;44.90;;;;;;5103630;28;20015;-74
2021/03/13 02:10:08;;;;;;;11.00;3.92;;;17.10;44.50;;;;;;5103294;28;20024;-74
2021/03/13 02:12:54;;;;;;;15.02;4.07;;;17.00;44.70;;;;;;5100598;28;20028;-73
2021/03/13 02:15:26;;;;;;;10.38;3.08;;;16.90;44.50;;;;;;5085827;28;20522;-74
2021/03/13 02:18:17;;;;;;;16.15;4.28;;;16.80;44.60;;;;;;5090869;28;20881;-74
2021/03/13 02:21:15;;;;;;;20.15;5.30;;;16.80;44.50;;;;;;5098726;28;20035;-73
2021/03/13 02:24:05;;;;;;;13.25;4.38;;;16.80;44.80;;;;;;5093312;28;20032;-73
2021/03/13 02:26:52;;;;;;;12.52;3.53;;;16.60;44.90;;;;;;5095969;28;20438;-75
2021/03/13 02:29:35;;;;;;;13.48;3.90;;;16.50;45.10;;;;;;5092515;28;20047;-72
2021/03/13 02:32:08;;;;;;;19.83;4.88;;;16.40;45.00;;;;;;5095402;28;20548;-73
2021/03/13 02:34:38;;;;;;;20.88;4.85;;;16.40;44.70;;;;;;5093504;28;20045;-74
2021/03/13 02:37:16;;;;;;;18.73;4.93;;;16.40;44.90;;;;;;5095002;28;20029;-74
2021/03/13 02:39:45;;;;;;;22.33;4.70;;;16.30;44.50;;;;;;5091238;28;20044;-74
2021/03/13 02:42:13;;;;;;;16.05;4.97;;;16.30;44.70;;;;;;5090785;28;20032;-75
2021/03/13 02:44:43;;;;;;;15.52;4.53;;;16.10;45.00;;;;;;5098293;28;20365;-75
2021/03/13 02:47:11;;;;;;;19.13;4.57;;;15.90;45.40;;;;;;5098618;28;20035;-74
2021/03/13 02:49:39;;;;;;;11.48;3.15;;;15.70;46.40;;;;;;5101202;28;20110;-74
2021/03/13 02:52:07;;;;;;;12.77;4.25;;;15.60;45.70;;;;;;5098433;28;20024;-74
2021/03/13 02:54:36;;;;;;;16.77;5.32;;;15.50;45.60;;;;;;5095227;28;20086;-73
2021/03/13 02:57:05;;;;;;;15.40;5.43;;;15.50;45.40;;;;;;5088181;28;20115;-73
2021/03/13 02:59:35;;;;;;;18.13;4.68;;;15.50;45.30;;;;;;5098233;28;20028;-74
2021/03/13 03:02:02;;;;;;;14.10;3.72;;;15.50;46.30;;;;;;5103266;28;20020;-75
2021/03/13 03:04:29;;;;;;;13.63;5.50;;;15.40;45.60;;;;;;5101282;28;20108;-72
2021/03/13 03:06:58;;;;;;;11.90;4.07;;;15.20;46.30;;;;;;5099108;28;20069;-73
2021/03/13 03:09:26;;;;;;;13.70;4.05;;;15.10;46.40;;;;;;5102878;28;20020;-72
2021/03/13 03:11:55;;;;;;;14.05;3.55;;;15.00;46.60;;;;;;5101473;28;20028;-73
2021/03/13 03:14:23;;;;;;;14.27;4.38;;;14.90;46.80;;;;;;5102330;28;20038;-73
2021/03/13 03:16:53;;;;;;;14.50;3.67;;;14.90;47.20;;;;;;5086279;28;20047;-72
2021/03/13 03:19:22;;;;;;;18.27;4.25;;;14.90;47.70;;;;;;5098313;28;20364;-74
2021/03/13 03:21:53;;;;;;;20.52;5.78;;;14.80;47.90;;;;;;5099762;28;20023;-72
2021/03/13 03:24:19;;;;;;;20.48;5.38;;;14.80;47.80;;;;;;5099516;28;20824;-72
2021/03/13 03:26:46;;;;;;;20.92;5.07;;;14.50;49.10;;;;;;5094455;28;20036;-73
2021/03/13 03:29:12;;;;;;;12.00;4.10;;;14.60;47.50;;;;;;5099242;28;20020;-73
2021/03/13 03:31:39;;;;;;;14.23;4.03;;;14.50;49.40;;;;;;5101495;28;20097;-73
2021/03/13 03:34:05;;;;;;;20.63;4.95;;;14.40;49.70;;;;;;5096009;28;20433;-72
2021/03/13 03:36:32;;;;;;;18.95;6.22;;;14.50;47.70;;;;;;5094216;28;20064;-74
2021/03/13 03:39:00;;;;;;;21.40;5.30;;;14.50;49.60;;;;;;5089376;28;20112;-72
2021/03/13 03:41:29;;;;;;;14.60;5.05;;;14.50;49.00;;;;;;5095353;28;20032;-72
2021/03/13 03:44:03;;;;;;;23.40;5.20;;;14.50;48.70;;;;;;5097591;28;20042;-73
2021/03/13 03:46:33;;;;;;;21.70;6.07;;;14.60;50.80;;;;;;5104119;28;20103;-73
2021/03/13 03:49:04;;;;;;;20.33;4.60;;;14.40;51.40;;;;;;5099775;28;20031;-73
2021/03/13 03:51:31;;;;;;;26.30;6.18;;;14.40;51.30;;;;;;5096529;28;20031;-73
2021/03/13 03:53:59;;;;;;;25.13;5.43;;;14.40;52.30;;;;;;5095339;28;20448;-73
2021/03/13 03:56:27;;;;;;;26.23;5.80;;;14.20;53.60;;;;;;5103574;28;20093;-73
2021/03/13 03:58:55;;;;;;;22.33;6.13;;;14.00;55.60;;;;;;5103983;28;20024;-73
2021/03/13 04:01:23;;;;;;;25.63;5.88;;;13.90;54.60;;;;;;5105119;28;20088;-73
2021/03/13 04:03:54;;;;;;;36.33;8.02;;;14.00;54.20;;;;;;5096233;28;20024;-73
2021/03/13 04:06:22;;;;;;;38.63;8.25;;;13.90;54.60;;;;;;5096820;28;20027;-72
2021/03/13 04:08:52;;;;;;;30.42;7.63;;;14.00;52.70;;;;;;5102670;28;20057;-73
2021/03/13 04:11:21;;;;;;;34.20;10.48;;;13.90;53.70;;;;;;5100972;28;20032;-73
2021/03/13 04:13:53;;;;;;;33.42;6.70;;;14.20;56.10;;;;;;5102960;28;20034;-73
2021/03/13 04:16:21;;;;;;;30.70;9.18;;;14.10;54.10;;;;;;5102655;27;20069;-73
2021/03/13 04:18:47;;;;;;;25.55;6.53;;;14.00;54.50;;;;;;5095926;28;20630;-73
2021/03/13 04:21:15;;;;;;;38.17;7.15;;;14.00;55.40;;;;;;5095048;28;20389;-73
2021/03/13 04:23:45;;;;;;;30.85;8.93;;;13.80;56.30;;;;;;5094861;28;20349;-74
2021/03/13 04:26:12;;;;;;;25.55;7.75;;;13.90;54.90;;;;;;5098977;28;20101;-73
2021/03/13 04:28:38;;;;;;;34.45;5.80;;;14.00;55.40;;;;;;5100527;28;20019;-73
2021/03/13 04:31:06;;;;;;;26.23;6.15;;;13.90;56.10;;;;;;5103019;28;20040;-72
2021/03/13 04:33:34;;;;;;;26.75;6.45;;;14.00;55.60;;;;;;5100331;28;20027;-73
2021/03/13 04:36:00;;;;;;;32.53;6.93;;;13.70;56.80;;;;;;5101757;28;20525;-73
2021/03/13 04:38:28;;;;;;;32.78;7.40;;;13.70;56.40;;;;;;5104177;28;20086;-73
2021/03/13 04:40:54;;;;;;;36.53;7.35;;;13.60;58.00;;;;;;5104174;28;20015;-73
2021/03/13 04:43:25;;;;;;;34.55;7.05;;;13.50;57.60;;;;;;5104650;28;20016;-72
2021/03/13 04:45:59;;;;;;;21.58;6.25;;;13.60;57.30;;;;;;5104451;28;20103;-72
2021/03/13 04:48:31;;;;;;;20.33;7.53;;;13.50;58.70;;;;;;5101335;28;20027;-74
2021/03/13 04:51:05;;;;;;;21.98;6.45;;;13.30;59.40;;;;;;5102713;28;20032;-75
2021/03/13 04:53:32;;;;;;;23.52;5.10;;;13.40;57.10;;;;;;5104670;28;20485;-74
2021/03/13 04:55:58;;;;;;;34.15;7.20;;;13.20;58.20;;;;;;5102792;28;20064;-74
2021/03/13 04:58:25;;;;;;;33.25;7.25;;;13.40;57.30;;;;;;5103119;28;20028;-72
2021/03/13 05:00:55;;;;;;;34.90;8.98;;;13.50;59.20;;;;;;5101538;28;20081;-72
2021/03/13 05:03:22;;;;;;;28.50;6.57;;;13.40;60.30;;;;;;5103372;28;20023;-72
2021/03/13 05:05:48;;;;;;;35.70;7.43;;;13.50;59.60;;;;;;5101345;28;20028;-72
2021/03/13 05:08:14;;;;;;;30.98;7.15;;;13.60;58.50;;;;;;5098963;28;20024;-72
2021/03/13 05:10:41;;;;;;;31.15;6.88;;;13.80;59.40;;;;;;5103948;28;20020;-72
2021/03/13 05:13:07;;;;;;;42.30;9.05;;;13.60;58.60;;;;;;5103278;28;20023;-72
2021/03/13 05:15:34;;;;;;;28.65;9.25;;;13.60;59.40;;;;;;5103862;28;20453;-73
2021/03/13 05:18:00;;;;;;;33.65;6.53;;;13.50;59.70;;;;;;5102163;28;20028;-73
2021/03/13 05:20:27;;;;;;;33.85;6.90;;;13.20;61.20;;;;;;5100104;28;20039;-73
2021/03/13 05:22:53;;;;;;;25.55;6.55;;;13.10;62.40;;;;;;5096355;28;20028;-72
2021/03/13 05:25:19;;;;;;;26.20;5.65;;;13.00;62.90;;;;;;5100472;28;20457;-73
2021/03/13 05:27:46;;;;;;;31.48;7.47;;;12.90;60.40;;;;;;5104019;28;20076;-73
2021/03/13 05:30:13;;;;;;;21.52;5.30;;;13.10;60.50;;;;;;5100050;28;20036;-73
2021/03/13 05:32:40;;;;;;;25.40;6.10;;;13.00;61.00;;;;;;5102856;28;20028;-72
2021/03/13 05:35:09;;;;;;;21.70;5.63;;;13.00;59.40;;;;;;5097784;28;20103;-74
2021/03/13 05:37:36;;;;;;;31.95;7.63;;;13.00;59.40;;;;;;5099101;28;20464;-72
2021/03/13 05:40:07;;;;;;;24.73;8.43;;;13.00;57.60;;;;;;5098710;28;20070;-73
2021/03/13 05:42:36;;;;;;;22.70;7.05;;;13.00;58.20;;;;;;5098632;28;20015;-72
2021/03/13 05:45:04;;;;;;;36.30;9.18;;;13.10;58.30;;;;;;5100668;28;20026;-74
2021/03/13 05:47:31;;;;;;;32.45;8.60;;;12.90;58.00;;;;;;5099725;28;20412;-72
2021/03/13 05:50:10;;;;;;;33.08;8.27;;;13.10;58.70;;;;;;5099064;28;20034;-74
2021/03/13 05:52:38;;;;;;;28.65;7.57;;;13.20;61.20;;;;;;5102825;28;20346;-73
2021/03/13 05:55:09;;;;;;;38.97;6.78;;;13.20;61.10;;;;;;5100704;28;20377;-73
2021/03/13 05:57:36;;;;;;;31.52;7.63;;;13.10;59.60;;;;;;5101054;28;20032;-73
2021/03/13 06:00:04;;;;;;;33.03;8.63;;;13.30;60.90;;;;;;5095851;28;20051;-73
2021/03/13 06:02:31;;;;;;;27.10;6.00;;;13.40;60.20;;;;;;5099319;28;20031;-73
2021/03/13 06:04:59;;;;;;;32.55;7.53;;;13.40;59.70;;;;;;5098550;28;20042;-74
2021/03/13 06:07:26;;;;;;;25.20;5.95;;;13.30;59.50;;;;;;5095376;28;20034;-75
2021/03/13 06:09:54;;;;;;;31.08;7.55;;;13.10;59.70;;;;;;5097463;28;20028;-73
2021/03/13 06:12:22;;;;;;;23.50;5.93;;;13.30;60.60;;;;;;5090637;28;20035;-73
2021/03/13 06:14:53;;;;;;;28.15;7.25;;;13.20;59.70;;;;;;5099583;28;20032;-73
2021/03/13 06:17:22;;;;;;;26.90;6.25;;;13.10;60.00;;;;;;5102244;28;20369;-73
2021/03/13 06:19:56;;;;;;;29.65;6.70;;;13.10;59.40;;;;;;5101218;28;20070;-73
2021/03/13 06:22:36;;;;;;;24.08;5.68;;;13.10;59.30;;;;;;5103927;28;20031;-73
2021/03/13 06:25:14;;;;;;;24.02;6.60;;;13.20;61.70;;;;;;5103900;28;20115;-73
2021/03/13 06:27:42;;;;;;;21.35;5.75;;;13.10;60.30;;;;;;5103919;28;20012;-73
2021/03/13 06:30:12;;;;;;;39.40;8.80;;;12.90;60.60;;;;;;5097100;28;20059;-73
2021/03/13 06:32:40;;;;;;;33.95;9.00;;;13.00;60.80;;;;;;5095332;28;20103;-73
2021/03/13 06:35:25;;;;;;;23.20;6.53;;;13.00;60.40;;;;;;5098503;28;20028;-74
2021/03/13 06:37:55;;;;;;;24.75;6.82;;;13.00;61.00;;;;;;5101996;28;20035;-74
2021/03/13 06:40:37;;;;;;;39.13;7.70;;;12.90;61.30;;;;;;5102882;28;20030;-74
2021/03/13 06:43:22;;;;;;;;;;;13.10;62.80;;;;;;5102858;28;20016;-72
2021/03/13 06:46:05;;;;;;;36.28;9.50;;;13.20;62.40;;;;;;5102875;28;19908;-73
2021/03/13 06:48:36;;;;;;;35.30;6.63;;;13.30;61.90;;;;;;5099421;28;20028;-73
2021/03/13 06:51:26;;;;;;;36.92;10.02;;;13.20;62.40;;;;;;5100702;28;20038;-72
2021/03/13 06:54:13;;;;;;;32.92;6.70;;;13.10;62.30;;;;;;5100979;28;20929;-73
2021/03/13 06:57:00;;;;;;;25.98;7.75;;;13.00;62.60;;;;;;5102624;28;20046;-72
2021/03/13 06:59:39;;;;;;;29.13;6.55;;;13.10;61.60;;;;;;5101254;28;20019;-72
2021/03/13 07:02:07;;;;;;;27.92;7.95;;;12.90;62.80;;;;;;5103105;28;20095;-73
2021/03/13 07:04:37;;;;;;;27.75;6.90;;;12.80;62.30;;;;;;5102164;28;20035;-72
2021/03/13 07:07:05;;;;;;;35.63;8.20;;;12.90;64.00;;;;;;5101867;28;20028;-72
2021/03/13 07:09:55;;;;;;;34.90;7.35;;;12.90;63.10;;;;;;5100149;28;20055;-72
2021/03/13 07:12:31;;;;;;;28.58;6.97;;;12.80;64.20;;;;;;5100743;28;20097;-72
2021/03/13 07:15:18;;;;;;;22.50;5.68;;;12.70;64.40;;;;;;5100194;28;20576;-73
2021/03/13 07:17:53;;;;;;;25.52;6.15;;;12.60;62.10;;;;;;5103126;28;20036;-74
2021/03/13 07:20:23;;;;;;;23.08;6.55;;;12.60;63.10;;;;;;5101692;28;20026;-72
2021/03/13 07:22:52;;;;;;;23.40;6.75;;;12.50;63.90;;;;;;5103536;28;20448;-72
2021/03/13 07:25:23;;;;;;;29.10;6.82;;;12.40;65.10;;;;;;5089995;28;20518;-72
2021/03/13 07:27:57;;;;;;;39.28;7.93;;;12.60;64.60;;;;;;5105508;28;20020;-72
2021/03/13 07:30:25;;;;;;;29.67;7.40;;;12.90;63.90;;;;;;5097747;28;20024;-73
2021/03/13 07:33:05;;;;;;;33.67;7.30;;;12.70;62.80;;;;;;5095615;28;20020;-72
2021/03/13 07:35:40;;;;;;;28.42;7.00;;;12.70;62.80;;;;;;5100293;28;20028;-72
2021/03/13 07:38:12;;;;;;;30.42;5.80;;;12.60;60.70;;;;;;5098082;28;20032;-71
2021/03/13 07:40:44;;;;;;;47.13;8.88;;;12.60;62.00;;;;;;5103075;28;20402;-72
2021/03/13 07:43:17;;;;;;;29.25;8.32;;;12.70;62.00;;;;;;5104379;28;20021;-72
2021/03/13 07:45:47;;;;;;;35.08;8.20;;;12.60;62.30;;;;;;5099809;28;20032;-72
2021/03/13 07:48:15;;;;;;;34.60;9.18;;;12.60;62.20;;;;;;5104076;28;20365;-71
2021/03/13 07:50:46;;;;;;;28.65;6.13;;;12.80;64.10;;;;;;5106404;28;20433;-73
2021/03/13 07:53:14;;;;;;;39.92;8.15;;;12.50;64.60;;;;;;5102263;28;20104;-72
2021/03/13 07:55:42;;;;;;;32.53;8.35;;;12.50;63.10;;;;;;5102483;28;20020;-73
2021/03/13 07:58:09;;;;;;;36.35;8.35;;;12.50;63.50;;;;;;5094595;28;20031;-72
2021/03/13 08:00:44;;;;;;;29.10;6.95;;;12.50;63.40;;;;;;5096519;28;20024;-72
2021/03/13 08:03:32;;;;;;;24.92;6.60;;;12.50;63.40;;;;;;5101452;28;20023;-72
2021/03/13 08:06:00;;;;;;;29.20;7.00;;;12.30;62.60;;;;;;5097784;28;20032;-73
2021/03/13 08:08:46;;;;;;;32.88;7.88;;;12.20;64.20;;;;;;5103517;28;20032;-72
2021/03/13 08:11:17;;;;;;;30.45;7.10;;;12.10;66.10;;;;;;5100724;28;20031;-72
2021/03/13 08:13:43;;;;;;;24.42;6.28;;;12.20;64.80;;;;;;5103439;28;20106;-72
2021/03/13 08:16:14;;;;;;;31.15;8.05;;;12.50;64.40;;;;;;5101395;28;20024;-72
2021/03/13 08:18:44;;;;;;;25.60;6.55;;;12.60;64.00;;;;;;5102025;28;20069;-72
2021/03/13 08:21:19;;;;;;;31.70;6.82;;;12.50;63.90;;;;;;5103782;28;20027;-72
2021/03/13 08:24:00;;;;;;;35.67;8.50;;;12.30;63.50;;;;;;5100331;28;20054;-73
2021/03/13 08:26:35;;;;;;;28.38;6.82;;;12.40;63.70;;;;;;5100768;28;20027;-73
2021/03/13 08:29:06;;;;;;;24.48;6.22;;;12.30;64.30;;;;;;5102751;28;20330;-74
2021/03/13 08:31:35;;;;;;;36.00;7.15;;;12.10;63.90;;;;;;5101201;28;20071;-74
2021/03/13 08:34:10;;;;;;;31.52;8.30;;;12.30;63.50;;;;;;5100124;28;21228;-72
2021/03/13 08:36:50;;;;;;;26.13;6.25;;;12.20;62.20;;;;;;5099906;28;20032;-72
2021/03/13 08:39:34;;;;;;;26.27;7.40;;;12.20;64.00;;;;;;5102365;28;20028;-72
2021/03/13 08:42:01;;;;;;;21.65;6.65;;;12.10;63.50;;;;;;5100641;28;20024;-72
2021/03/13 08:44:31;;;;;;;30.65;7.40;;;12.20;63.80;;;;;;5102477;28;20457;-72
2021/03/13 08:47:05;;;;;;;33.78;6.97;;;12.10;64.30;;;;;;5099101;28;20318;-72
2021/03/13 08:49:32;;;;;;;32.97;6.90;;;12.10;63.10;;;;;;5100849;28;20511;-72
2021/03/13 08:52:07;;;;;;;28.13;6.55;;;12.10;62.80;;;;;;5096519;28;20036;-73
2021/03/13 08:54:40;;;;;;;32.40;7.63;;;12.10;62.70;;;;;;5098289;28;20476;-72
2021/03/13 08:57:16;;;;;;;21.98;4.90;;;12.10;62.60;;;;;;5102982;28;20444;-73
2021/03/13 08:59:45;;;;;;;29.40;6.32;;;12.00;64.40;;;;;;5101203;28;20058;-72
2021/03/13 09:02:22;;;;;;;29.92;6.43;;;12.10;63.20;;;;;;5094981;28;20462;-72
2021/03/13 09:04:52;;;;;;;22.80;5.90;;;12.30;62.80;;;;;;5093935;28;20020;-72
2021/03/13 09:07:19;;;;;;;25.35;7.22;;;12.40;63.80;;;;;;5095017;28;20034;-72
2021/03/13 09:09:47;;;;;;;36.22;7.60;;;12.30;63.60;;;;;;5098616;28;20421;-72
2021/03/13 09:12:18;;;;;;;23.77;6.68;;;12.30;63.10;;;;;;5100753;28;20031;-72
2021/03/13 09:14:45;;;;;;;19.83;6.47;;;12.40;63.60;;;;;;5096997;28;20090;-72
2021/03/13 09:17:17;;;;;;;43.80;9.27;;;12.30;63.40;;;;;;5100084;28;20119;-72
2021/03/13 09:19:46;;;;;;;16.45;5.20;;;12.10;63.90;;;;;;5100607;28;20475;-72
2021/03/13 09:22:16;;;;;;;28.70;7.00;;;11.90;63.30;;;;;;5102089;28;20026;-72
2021/03/13 09:24:50;;;;;;;22.42;6.90;;;11.90;63.20;;;;;;5097453;28;20086;-72
2021/03/13 09:27:17;;;;;;;25.38;5.35;;;11.80;63.70;;;;;;5097085;28;20213;-72
2021/03/13 09:29:43;;;;;;;31.17;6.22;;;11.80;64.80;;;;;;5098846;28;20476;-72
2021/03/13 09:32:14;;;;;;;25.63;6.43;;;11.80;63.30;;;;;;5101418;28;21036;-72
2021/03/13 09:34:42;;;;;;;28.20;6.47;;;11.80;64.10;;;;;;5100935;28;20024;-72
2021/03/13 09:37:20;;;;;;;25.23;6.20;;;11.80;63.00;;;;;;5098985;28;20382;-74
2021/03/13 09:39:50;;;;;;;29.35;7.80;;;11.80;64.80;;;;;;5098548;28;20039;-72
2021/03/13 09:42:26;;;;;;;26.70;5.78;;;11.70;65.00;;;;;;5097598;28;20032;-72
2021/03/13 09:44:55;;;;;;;28.45;5.03;;;11.80;64.70;;;;;;5100242;28;20024;-72
2021/03/13 09:47:27;;;;;;;17.75;5.97;;;11.60;65.20;;;;;;5101650;28;20024;-72
2021/03/13 09:49:59;;;;;;;18.48;5.45;;;11.60;64.60;;;;;;5104278;28;20084;-72
2021/03/13 09:52:33;;;;;;;25.17;7.97;;;11.60;64.20;;;;;;5104049;28;20042;-72
2021/03/13 09:55:06;;;;;;;23.13;5.28;;;11.60;64.80;;;;;;5102984;28;20032;-72
2021/03/13 09:57:33;;;;;;;13.00;4.70;;;11.60;64.20;;;;;;5098422;28;20032;-72
2021/03/13 10:00:00;;;;;;;9.98;4.10;;;11.60;64.00;;;;;;5100550;28;20028;-72
2021/03/13 10:02:27;;;;;;;26.10;7.07;;;11.60;64.80;;;;;;5096664;28;20775;-72
2021/03/13 10:04:55;;;;;;;16.88;5.53;;;11.40;66.70;;;;;;5095131;28;20024;-72
2021/03/13 10:07:22;;;;;;;14.85;4.18;;;11.40;65.60;;;;;;5100350;28;20034;-73
2021/03/13 10:10:07;;;;;;;12.52;4.00;;;11.40;64.90;;;;;;5099871;28;20365;-71
2021/03/13 10:12:42;;;;;;;16.90;4.95;;;11.40;65.70;;;;;;5101628;28;20357;-72
2021/03/13 10:15:14;;;;;;;15.40;5.25;;;11.40;64.70;;;;;;5099043;28;20046;-72
2021/03/13 10:17:54;;;;;;;;;;;11.40;64.20;;;;;;5098721;28;20065;-72
2021/03/13 10:20:22;;;;;;;16.88;6.15;;;11.40;63.00;;;;;;5101524;28;19927;-72
2021/03/13 10:22:49;;;;;;;15.18;4.30;;;11.40;63.60;;;;;;5099455;28;20349;-72
2021/03/13 10:25:16;;;;;;;13.65;3.55;;;11.30;63.70;;;;;;5099111;28;20024;-72
2021/03/13 10:27:43;;;;;;;15.13;5.00;;;11.30;63.60;;;;;;5095518;28;20023;-72
2021/03/13 10:30:11;;;;;;;12.70;4.22;;;11.30;63.40;;;;;;5098813;28;20101;-72
2021/03/13 10:32:40;;;;;;;13.15;4.25;;;11.20;63.30;;;;;;5102095;28;20115;-73
2021/03/13 10:35:13;;;;;;;23.00;6.10;;;11.20;63.30;;;;;;5100523;28;20028;-73
2021/03/13 10:37:49;;;;;;;13.60;4.50;;;11.10;63.50;;;;;;5101526;28;20043;-73
2021/03/13 10:40:39;;;;;;;13.15;5.00;;;11.10;63.10;;;;;;5098788;28;20031;-72
2021/03/13 10:43:32;;;;;;;11.93;3.78;;;11.00;62.70;;;;;;5103145;28;20024;-73
2021/03/13 10:45:58;;;;;;;12.82;4.00;;;11.00;63.40;;;;;;5098353;28;20028;-73
2021/03/13 10:48:27;;;;;;;11.00;5.03;;;10.90;63.10;;;;;;5101185;28;20110;-74
2021/03/13 10:50:57;;;;;;;11.20;4.30;;;10.90;64.00;;;;;;5101471;28;20016;-73
2021/03/13 10:53:34;;;;;;;12.90;4.65;;;10.80;63.20;;;;;;5099257;28;20016;-72
2021/03/13 10:56:09;;;;;;;11.02;4.15;;;10.80;63.20;;;;;;5104577;28;20043;-72
2021/03/13 10:58:49;;;;;;;19.85;5.63;;;10.70;63.40;;;;;;5103540;28;20027;-72
2021/03/13 11:01:16;;;;;;;10.93;3.90;;;10.70;63.20;;;;;;5100376;28;20089;-72
2021/03/13 11:03:44;;;;;;;12.88;4.97;;;10.70;63.20;;;;;;5098002;28;20035;-72
2021/03/13 11:06:12;;;;;;;19.73;5.82;;;10.60;63.30;;;;;;5103611;28;20462;-73
2021/03/13 11:08:39;;;;;;;8.82;4.13;;;10.60;63.30;;;;;;5104899;28;20115;-72
2021/03/13 11:11:06;;;;;;;12.30;3.80;;;10.50;63.30;;;;;;5104445;28;20103;-72
2021/03/13 11:13:32;;;;;;;19.65;5.18;;;10.50;63.90;;;;;;5102251;28;20074;-73
2021/03/13 11:15:59;;;;;;;16.83;6.22;;;10.50;63.40;;;;;;5102759;28;20036;-72
2021/03/13 11:18:25;;;;;;;9.23;3.75;;;10.50;63.60;;;;;;5106341;28;20023;-72
2021/03/13 11:20:53;;;;;;;11.25;4.60;;;10.40;63.70;;;;;;5100925;28;20024;-72
2021/03/13 11:23:20;;;;;;;12.13;4.57;;;10.40;63.80;;;;;;5103035;28;20080;-73
2021/03/13 11:25:47;;;;;;;10.80;4.47;;;10.40;64.00;;;;;;5103608;28;20027;-72
2021/03/13 11:28:13;;;;;;;15.95;4.47;;;10.30;64.10;;;;;;5102104;28;20055;-72
2021/03/13 11:30:40;;;;;;;13.38;3.67;;;10.30;64.30;;;;;;5103965;27;20102;-72
2021/03/13 11:33:07;;;;;;;14.25;4.00;;;10.30;64.50;;;;;;5105863;28;20024;-73
2021/03/13 11:35:33;;;;;;;17.23;4.38;;;10.30;65.40;;;;;;5103214;28;20031;-73
2021/03/13 11:38:00;;;;;;;12.48;4.05;;;10.20;66.10;;;;;;5100339;28;20027;-73
2021/03/13 11:40:47;;;;;;;11.95;3.92;;;10.30;64.70;;;;;;5099186;28;20590;-72
2021/03/13 11:43:13;;;;;;;10.30;3.75;;;10.20;64.70;;;;;;5044052;28;20033;-73
2021/03/13 11:45:40;;;;;;;16.65;6.60;;;10.20;64.80;;;;;;5061407;28;20390;-73
2021/03/13 11:48:07;;;;;;;15.50;4.00;;;10.30;64.50;;;;;;5062208;28;20036;-72
2021/03/13 11:50:33;;;;;;;15.52;5.00;;;10.20;64.70;;;;;;5060386;28;20039;-72
2021/03/13 11:53:00;;;;;;;13.23;4.30;;;10.30;64.00;;;;;;5062867;28;20585;-73
2021/03/13 11:55:27;;;;;;;19.02;4.80;;;10.30;64.70;;;;;;5062986;28;20045;-73
2021/03/13 11:57:54;;;;;;;20.75;5.47;;;10.30;64.50;;;;;;5061018;28;20048;-73
2021/03/13 12:00:21;;;;;;;10.50;3.65;;;10.30;64.50;;;;;;5061274;28;20371;-72
2021/03/13 12:02:47;;;;;;;8.95;4.00;;;10.30;64.90;;;;;;5059413;28;20037;-72
2021/03/13 12:05:14;;;;;;;7.38;3.63;;;10.40;64.90;;;;;;5060668;28;20541;-72
2021/03/13 12:07:41;;;;;;;12.52;4.05;;;10.40;64.90;;;;;;5062079;28;20053;-72
2021/03/13 12:10:10;;;;;;;19.85;5.35;;;10.40;65.40;;;;;;5058180;28;21422;-72
2021/03/13 12:12:37;;;;;;;16.65;3.63;;;10.40;67.00;;;;;;5060805;28;20485;-72
2021/03/13 12:15:08;;;;;;;10.10;4.60;;;10.40;67.50;;;;;;5061045;28;21024;-72
2021/03/13 12:17:36;;;;;;;13.50;4.50;;;10.50;65.80;;;;;;5060541;28;20378;-72
2021/03/13 12:20:05;;;;;;;13.57;4.53;;;10.50;65.70;;;;;;5078908;28;20453;-73
2021/03/13 12:22:31;;;;;;;13.32;3.85;;;10.60;65.30;;;;;;5099420;28;20028;-72
2021/03/13 12:24:58;;;;;;;16.50;4.53;;;10.60;65.30;;;;;;5103874;28;20449;-73
2021/03/13 12:27:24;;;;;;;16.73;4.28;;;10.60;65.30;;;;;;5101267;28;20019;-73
2021/03/13 12:29:51;;;;;;;13.50;4.03;;;10.70;66.10;;;;;;5095048;28;20027;-73
2021/03/13 12:32:19;;;;;;;18.02;4.65;;;10.70;65.70;;;;;;5094497;28;20029;-72
2021/03/13 12:34:46;;;;;;;12.75;3.90;;;10.80;65.40;;;;;;5103085;28;20047;-73
2021/03/13 12:37:13;;;;;;;18.02;5.95;;;10.80;65.80;;;;;;5102193;28;20357;-72
2021/03/13 12:39:39;;;;;;;13.80;4.00;;;10.90;66.20;;;;;;5104806;28;20458;-72
2021/03/13 12:42:06;;;;;;;22.23;6.32;;;10.90;66.30;;;;;;5100467;28;20026;-72
2021/03/13 12:44:33;;;;;;;19.42;5.05;;;11.00;65.20;;;;;;5097709;28;20023;-73
2021/03/13 12:46:59;;;;;;;15.15;4.30;;;11.10;64.30;;;;;;5099832;28;20023;-72
2021/03/13 12:49:26;;;;;;;21.02;6.13;;;11.20;64.80;;;;;;5100609;28;20098;-72
2021/03/13 12:51:52;;;;;;;18.25;5.60;;;11.30;64.70;;;;;;5098768;28;20027;-72
2021/03/13 12:54:18;;;;;;;18.98;4.60;;;11.40;64.40;;;;;;5104406;28;20098;-72